Greenway, Minnesota
Current Conditions -  °F | °C
As of 12:35 PM on Thursday 27 Nov 2014 (Local Time) from KGPZ Reporting Station
Clear Clear  
Wind Chill: -10°   Ceiling: Unl
Heat Index:   Visibility: 10mi
Dew Point: -8°   Wind: 5mph
Humidity: 72%   Direction: 260°W
Pressure: 30.38"   Gusts: NA
Location:  47.3198°N, 93.3089°W
Report Text: KGPZ 271835Z AUTO 26004KT 10SM CLR M18/M22 A3038 RMK AO1
Loading
Personal Weather Stations






























Interactive Weather Map New forecast layout! Learn more

10-Day Weather Forecast

Advertisements
Track Severe Weather on mobile